Time;durP1;ratioP1;P1;durP2;ratioP2;P2;SDS_P1;SDS_P2;PMS_P1;PMS_P2;Temp;Humidity;BMP_temperature;BMP_pressure;BME280_temperature;BME280_humidity;BME280_pressure;Samples;Min_cycle;Max_cycle;Signal;HPM_P1;HPM_P2
2022/12/05 00:01:20;;;;;;;76.50;42.15;;;2.40;89.40;;;;;;4964241;28;20042;-76
2022/12/05 00:03:48;;;;;;;74.47;41.03;;;2.30;89.40;;;;;;4957858;28;20121;-79
2022/12/05 00:06:14;;;;;;;75.28;40.47;;;2.30;89.20;;;;;;4965514;28;20031;-76
2022/12/05 00:08:40;;;;;;;73.45;40.42;;;2.30;89.10;;;;;;4963699;28;20483;-78
2022/12/05 00:11:20;;;;;;;78.50;42.58;;;2.30;89.10;;;;;;4967873;28;20030;-79
2022/12/05 00:13:48;;;;;;;81.32;43.33;;;2.30;88.90;;;;;;4960515;28;20327;-76
2022/12/05 00:16:18;;;;;;;79.57;41.65;;;2.30;88.90;;;;;;4963700;28;20070;-76
2022/12/05 00:18:44;;;;;;;77.63;42.45;;;2.30;88.90;;;;;;4966220;28;20039;-76
2022/12/05 00:21:16;;;;;;;75.35;40.95;;;2.30;88.90;;;;;;4968067;28;20045;-78
2022/12/05 00:23:42;;;;;;;80.45;43.83;;;2.40;88.80;;;;;;4964126;28;20054;-80
2022/12/05 00:26:08;;;;;;;84.85;43.95;;;2.30;88.80;;;;;;4963351;28;20073;-77
2022/12/05 00:28:34;;;;;;;78.75;42.08;;;2.40;88.90;;;;;;4965408;28;20154;-76
2022/12/05 00:31:12;;;;;;;79.53;43.38;;;2.40;88.90;;;;;;4963438;28;20075;-76
2022/12/05 00:33:38;;;;;;;74.90;43.05;;;2.40;88.80;;;;;;4960283;28;20047;-81
2022/12/05 00:36:10;;;;;;;71.43;42.60;;;2.40;88.90;;;;;;4953811;28;20034;-79
2022/12/05 00:38:36;;;;;;;76.72;43.60;;;2.40;88.80;;;;;;4960244;28;20037;-77
2022/12/05 00:41:08;;;;;;;83.03;43.83;;;2.40;88.80;;;;;;4964109;28;20046;-76
2022/12/05 00:43:34;;;;;;;73.00;41.42;;;2.40;88.80;;;;;;4960726;28;20033;-76
2022/12/05 00:46:02;;;;;;;74.15;41.88;;;2.40;88.80;;;;;;4963725;28;20346;-78
2022/12/05 00:48:28;;;;;;;73.95;40.63;;;2.40;88.70;;;;;;4962137;28;20035;-76
2022/12/05 00:51:08;;;;;;;78.00;42.00;;;2.50;88.70;;;;;;4962418;28;20627;-79
2022/12/05 00:53:34;;;;;;;71.28;39.88;;;2.50;88.70;;;;;;4965889;28;20054;-78
2022/12/05 00:56:05;;;;;;;64.45;37.55;;;2.60;88.60;;;;;;4964527;28;20039;-77
2022/12/05 00:58:32;;;;;;;70.30;38.47;;;2.50;88.40;;;;;;4965305;28;20062;-77
2022/12/05 01:01:24;;;;;;;63.85;37.55;;;2.50;88.40;;;;;;4966573;28;20378;-76
2022/12/05 01:03:52;;;;;;;68.68;38.58;;;2.50;88.50;;;;;;4961919;28;20374;-76
2022/12/05 01:06:22;;;;;;;63.92;38.70;;;2.50;88.40;;;;;;4954824;28;20178;-76
2022/12/05 01:08:47;;;;;;;62.42;35.83;;;2.50;88.50;;;;;;4962446;28;20537;-77
2022/12/05 01:11:15;;;;;;;68.57;37.72;;;2.50;88.60;;;;;;4967000;28;20051;-77
2022/12/05 01:13:41;;;;;;;64.53;37.88;;;2.50;88.70;;;;;;4962036;28;20030;-75
2022/12/05 01:16:20;;;;;;;63.65;35.22;;;2.50;88.70;;;;;;4971710;28;20026;-77
2022/12/05 01:18:46;;;;;;;67.25;36.75;;;2.50;88.80;;;;;;4965937;28;20046;-76
2022/12/05 01:21:12;;;;;;;67.38;38.33;;;2.60;88.80;;;;;;4964547;28;20055;-78
2022/12/05 01:23:37;;;;;;;62.65;37.03;;;2.50;88.80;;;;;;4961018;28;20030;-76
2022/12/05 01:26:09;;;;;;;69.88;38.03;;;2.50;88.80;;;;;;4964439;28;20030;-77
2022/12/05 01:28:35;;;;;;;59.40;35.33;;;2.50;88.90;;;;;;4965760;28;20211;-77
2022/12/05 01:31:21;;;;;;;65.28;36.67;;;2.60;88.90;;;;;;4961756;28;20153;-77
2022/12/05 01:33:47;;;;;;;59.97;35.03;;;2.60;88.90;;;;;;4963030;28;20114;-76
2022/12/05 01:36:13;;;;;;;58.38;35.33;;;2.60;88.90;;;;;;4953432;28;20037;-76
2022/12/05 01:38:40;;;;;;;72.38;37.97;;;2.60;89.00;;;;;;4961441;28;20035;-75
2022/12/05 01:41:07;;;;;;;61.70;34.60;;;2.60;89.00;;;;;;4956763;28;20042;-76
2022/12/05 01:44:05;;;;;;;62.83;35.08;;;2.60;88.90;;;;;;4959468;28;20031;-76
2022/12/05 01:46:34;;;;;;;58.38;35.67;;;2.70;88.90;;;;;;4964124;28;20042;-76
2022/12/05 01:49:12;;;;;;;60.22;35.20;;;2.60;88.90;;;;;;4965445;28;20062;-77
2022/12/05 01:51:41;;;;;;;60.50;35.28;;;2.60;88.90;;;;;;4966275;28;20041;-76
2022/12/05 01:54:09;;;;;;;60.47;36.33;;;2.60;89.10;;;;;;4965265;28;20113;-76
2022/12/05 01:56:35;;;;;;;57.10;33.97;;;2.70;89.10;;;;;;4968558;28;20034;-77
2022/12/05 01:59:05;;;;;;;57.47;34.42;;;2.60;89.10;;;;;;4966020;28;20338;-76
2022/12/05 02:01:31;;;;;;;63.45;36.60;;;2.60;89.20;;;;;;4961211;28;20062;-76
2022/12/05 02:03:58;;;;;;;60.50;35.97;;;2.60;89.30;;;;;;4960168;28;20039;-80
2022/12/05 02:06:25;;;;;;;61.38;35.97;;;2.60;89.40;;;;;;4966370;28;20061;-79
2022/12/05 02:08:54;;;;;;;64.22;36.15;;;2.60;89.50;;;;;;4966340;28;20023;-80
2022/12/05 02:11:22;;;;;;;65.80;36.50;;;2.50;89.70;;;;;;4963039;28;20077;-76
2022/12/05 02:14:24;;;;;;;65.03;36.08;;;2.60;89.80;;;;;;4969899;28;20031;-77
2022/12/05 02:17:21;;;;;;;67.93;35.95;;;2.60;90.00;;;;;;4965378;28;20286;-78
2022/12/05 02:20:19;;;;;;;60.65;34.50;;;2.50;90.10;;;;;;4988943;28;20026;-78
2022/12/05 02:22:53;;;;;;;62.75;36.42;;;2.60;90.20;;;;;;4965878;28;20031;-77
2022/12/05 02:25:19;;;;;;;;;;;2.60;90.20;;;;;;4970009;28;20121;-76
2022/12/05 02:28:07;;;;;;;61.50;34.25;;;2.60;90.30;;;;;;4976769;28;20028;-80
2022/12/05 02:30:42;;;;;;;60.45;34.80;;;2.60;90.30;;;;;;4970153;28;20460;-78
2022/12/05 02:33:20;;;;;;;61.42;35.80;;;2.50;90.40;;;;;;4969741;28;20043;-76
2022/12/05 02:35:54;;;;;;;62.97;37.05;;;2.50;90.40;;;;;;4962974;28;20059;-82
2022/12/05 02:38:33;;;;;;;65.90;38.97;;;2.60;90.70;;;;;;4972562;28;20026;-78
2022/12/05 02:41:21;;;;;;;67.57;36.45;;;2.50;90.70;;;;;;4964704;28;20193;-76
2022/12/05 02:44:00;;;;;;;63.83;35.33;;;2.50;90.80;;;;;;4967577;28;20399;-76
2022/12/05 02:46:29;;;;;;;63.35;36.13;;;2.50;90.90;;;;;;4972894;28;20230;-76
2022/12/05 02:49:02;;;;;;;62.55;37.42;;;2.50;90.90;;;;;;4972203;28;20030;-79
2022/12/05 02:51:32;;;;;;;62.40;36.88;;;2.50;91.00;;;;;;4974744;28;20038;-79
2022/12/05 02:54:03;;;;;;;60.38;35.72;;;2.50;91.10;;;;;;4968662;28;20371;-78
2022/12/05 02:56:31;;;;;;;62.60;35.03;;;2.50;91.00;;;;;;4965110;28;20030;-76
2022/12/05 02:58:56;;;;;;;64.78;35.60;;;2.60;91.10;;;;;;4966406;28;21080;-76
2022/12/05 03:01:28;;;;;;;63.20;37.30;;;2.50;91.20;;;;;;4975279;28;20039;-80
2022/12/05 03:03:56;;;;;;;63.47;37.22;;;2.50;91.20;;;;;;4971992;28;20074;-77
2022/12/05 03:06:24;;;;;;;58.20;36.17;;;2.50;91.30;;;;;;4971634;28;20120;-77
2022/12/05 03:09:01;;;;;;;63.08;36.60;;;2.50;91.40;;;;;;4966928;28;20125;-80
2022/12/05 03:11:33;;;;;;;67.82;38.17;;;2.50;91.40;;;;;;4966149;28;20333;-80
2022/12/05 03:14:01;;;;;;;61.35;37.70;;;2.50;91.40;;;;;;4966223;28;20046;-77
2022/12/05 03:16:53;;;;;;;58.97;34.60;;;2.50;91.50;;;;;;4963368;28;20105;-78
2022/12/05 03:19:29;;;;;;;65.75;39.28;;;2.50;91.50;;;;;;4960568;28;20050;-80
2022/12/05 03:22:04;;;;;;;61.88;36.88;;;2.50;91.60;;;;;;4971208;28;20062;-78
2022/12/05 03:24:33;;;;;;;65.20;37.25;;;2.50;91.60;;;;;;4964240;28;20118;-77
2022/12/05 03:27:04;;;;;;;63.92;37.22;;;2.40;91.70;;;;;;4971554;28;20035;-76
2022/12/05 03:30:02;;;;;;;63.70;35.22;;;2.50;91.70;;;;;;4979501;28;20030;-76
2022/12/05 03:32:44;;;;;;;62.15;35.22;;;2.50;91.80;;;;;;4964154;28;20043;-76
2022/12/05 03:35:34;;;;;;;61.75;35.65;;;2.50;91.90;;;;;;4968475;28;20046;-78
2022/12/05 03:38:11;;;;;;;64.07;35.97;;;2.50;92.00;;;;;;4970871;28;20147;-76
2022/12/05 03:40:46;;;;;;;63.15;35.67;;;2.50;92.00;;;;;;4969515;28;20053;-77
2022/12/05 03:43:14;;;;;;;;;;;2.40;92.00;;;;;;4962008;28;20302;-77
2022/12/05 03:45:55;;;;;;;64.75;35.30;;;2.40;92.10;;;;;;4964150;28;19910;-79
2022/12/05 03:48:37;;;;;;;57.13;34.60;;;2.50;92.10;;;;;;4962679;28;20062;-81
2022/12/05 03:51:07;;;;;;;62.45;34.60;;;2.50;92.20;;;;;;4966598;28;20042;-78
2022/12/05 03:53:43;;;;;;;62.83;36.78;;;2.40;92.20;;;;;;4968872;28;20026;-78
2022/12/05 03:56:20;;;;;;;61.10;34.65;;;2.40;92.30;;;;;;4966893;28;20108;-76
2022/12/05 03:59:13;;;;;;;62.55;34.95;;;2.50;92.30;;;;;;4968450;28;20034;-77
2022/12/05 04:01:40;;;;;;;66.13;37.03;;;2.40;92.30;;;;;;4957425;28;20053;-77
2022/12/05 04:04:19;;;;;;;59.85;34.95;;;2.40;92.40;;;;;;4964580;28;20121;-80
2022/12/05 04:06:47;;;;;;;62.67;35.83;;;2.50;92.40;;;;;;4962246;28;20493;-80
2022/12/05 04:09:47;;;;;;;60.15;35.53;;;2.50;92.50;;;;;;4962219;28;20081;-78
2022/12/05 04:12:22;;;;;;;60.35;35.00;;;2.50;92.50;;;;;;4965033;28;20265;-76
2022/12/05 04:14:51;;;;;;;60.63;36.13;;;2.50;92.50;;;;;;4964130;28;20424;-77
2022/12/05 04:17:36;;;;;;;58.00;34.13;;;2.50;92.50;;;;;;4962328;28;20058;-80
2022/12/05 04:23:13;;;;;;;59.67;35.55;;;2.50;92.60;;;;;;4964754;28;20141;-77
2022/12/05 04:25:50;;;;;;;58.33;33.90;;;2.50;92.60;;;;;;4968829;28;20045;-76
2022/12/05 04:28:39;;;;;;;54.65;32.00;;;2.50;92.60;;;;;;4978993;28;20045;-79
2022/12/05 04:31:23;;;;;;;55.85;31.92;;;2.50;92.60;;;;;;4960328;28;20129;-77
2022/12/05 04:33:54;;;;;;;55.13;33.40;;;2.50;92.60;;;;;;4958516;28;20034;-77
2022/12/05 04:36:22;;;;;;;61.45;33.22;;;2.50;92.60;;;;;;4963055;28;20027;-77
2022/12/05 04:39:01;;;;;;;58.35;33.00;;;2.50;92.60;;;;;;4966593;28;20053;-76
2022/12/05 04:41:36;;;;;;;54.78;33.35;;;2.50;92.60;;;;;;4968545;28;20038;-79
2022/12/05 04:44:06;;;;;;;54.45;32.55;;;2.50;92.60;;;;;;4961704;28;20417;-80
2022/12/05 04:46:33;;;;;;;54.63;33.35;;;2.50;92.60;;;;;;4964201;28;20114;-77
2022/12/05 04:49:01;;;;;;;53.85;32.40;;;2.50;92.70;;;;;;4965261;28;20066;-76
2022/12/05 04:51:33;;;;;;;51.63;31.52;;;2.50;92.70;;;;;;4965839;28;20118;-76
2022/12/05 04:54:17;;;;;;;57.40;32.67;;;2.50;92.70;;;;;;4966252;28;20046;-76
2022/12/05 04:56:45;;;;;;;55.33;31.70;;;2.50;92.80;;;;;;4957653;28;20115;-76
2022/12/05 04:59:11;;;;;;;52.63;32.95;;;2.50;92.80;;;;;;4958465;28;20043;-79
2022/12/05 05:01:39;;;;;;;58.45;33.63;;;2.50;92.80;;;;;;4960771;28;20518;-78
2022/12/05 05:04:13;;;;;;;56.10;32.60;;;2.50;92.90;;;;;;4963051;28;20027;-77
2022/12/05 05:06:40;;;;;;;50.33;30.95;;;2.50;92.90;;;;;;4964081;28;20553;-76
2022/12/05 05:09:06;;;;;;;58.17;32.55;;;2.60;92.90;;;;;;4963003;28;20106;-79
2022/12/05 05:11:33;;;;;;;53.30;31.83;;;2.50;92.90;;;;;;4963904;28;20046;-78
2022/12/05 05:14:00;;;;;;;59.58;32.58;;;2.60;92.90;;;;;;4982287;28;20494;-76
2022/12/05 05:16:32;;;;;;;57.17;34.22;;;2.60;93.00;;;;;;4967337;28;20031;-78
2022/12/05 05:18:58;;;;;;;57.67;32.35;;;2.60;93.00;;;;;;4963326;28;20034;-81
2022/12/05 05:21:26;;;;;;;58.20;34.17;;;2.50;93.10;;;;;;4965654;28;20046;-76
2022/12/05 05:23:53;;;;;;;56.88;32.75;;;2.60;93.10;;;;;;4956241;28;20031;-79
2022/12/05 05:26:19;;;;;;;60.00;34.78;;;2.60;93.10;;;;;;4958636;28;20035;-82
2022/12/05 05:28:45;;;;;;;56.70;34.45;;;2.60;93.20;;;;;;4967107;28;20233;-76
2022/12/05 05:31:12;;;;;;;59.88;33.95;;;2.60;93.20;;;;;;4955857;28;20034;-78
2022/12/05 05:33:37;;;;;;;60.70;34.65;;;2.60;93.20;;;;;;4961352;28;20192;-75
2022/12/05 05:36:09;;;;;;;58.45;33.28;;;2.60;93.30;;;;;;4964465;28;20632;-76
2022/12/05 05:38:45;;;;;;;58.78;33.88;;;2.60;93.30;;;;;;4964148;28;20708;-78
2022/12/05 05:41:25;;;;;;;58.83;35.00;;;2.60;93.30;;;;;;4959893;28;20035;-77
2022/12/05 05:43:51;;;;;;;59.80;36.38;;;2.60;93.30;;;;;;4961784;28;20062;-77
2022/12/05 05:46:20;;;;;;;58.50;34.63;;;2.60;93.30;;;;;;4961542;28;20057;-78
2022/12/05 05:48:46;;;;;;;58.35;33.78;;;2.60;93.40;;;;;;4960561;28;20114;-81
2022/12/05 05:51:13;;;;;;;61.90;35.63;;;2.60;93.40;;;;;;4953126;28;20479;-77
2022/12/05 05:53:39;;;;;;;65.07;36.22;;;2.60;93.40;;;;;;4958631;28;20039;-79
2022/12/05 05:56:07;;;;;;;58.53;34.22;;;2.60;93.40;;;;;;4959072;28;20055;-77
2022/12/05 05:58:33;;;;;;;59.92;34.17;;;2.60;93.40;;;;;;4968065;28;20062;-77
2022/12/05 06:01:08;;;;;;;62.53;35.50;;;2.60;93.40;;;;;;4960443;28;20038;-77
2022/12/05 06:03:34;;;;;;;59.45;34.42;;;2.60;93.50;;;;;;4955281;28;20464;-76
2022/12/05 06:06:02;;;;;;;56.38;35.30;;;2.60;93.40;;;;;;4958145;28;20494;-76
2022/12/05 06:08:30;;;;;;;57.58;35.13;;;2.60;93.40;;;;;;4956352;28;20483;-79
2022/12/05 06:10:55;;;;;;;63.45;34.55;;;2.60;93.40;;;;;;4961679;28;20038;-79
2022/12/05 06:13:21;;;;;;;56.22;34.78;;;2.60;93.40;;;;;;4961182;28;20077;-76
2022/12/05 06:15:47;;;;;;;56.25;34.67;;;2.60;93.40;;;;;;4966736;28;20078;-78
2022/12/05 06:18:12;;;;;;;62.33;35.60;;;2.60;93.40;;;;;;4960791;28;20047;-74
2022/12/05 06:20:38;;;;;;;59.08;34.00;;;2.60;93.50;;;;;;4961878;28;20047;-76
2022/12/05 06:23:04;;;;;;;56.40;35.65;;;2.60;93.40;;;;;;4959347;28;20514;-78
2022/12/05 06:25:29;;;;;;;62.58;35.13;;;2.60;93.40;;;;;;4959315;28;20039;-78
2022/12/05 06:27:55;;;;;;;61.38;36.75;;;2.60;93.50;;;;;;4954181;28;20051;-79
2022/12/05 06:30:20;;;;;;;62.17;35.70;;;2.70;93.50;;;;;;4971764;28;20035;-78
2022/12/05 06:32:46;;;;;;;58.65;34.28;;;2.70;93.50;;;;;;4965206;28;20035;-77
2022/12/05 06:35:15;;;;;;;58.90;34.53;;;2.70;93.50;;;;;;4968366;28;20040;-78
2022/12/05 06:37:42;;;;;;;62.28;36.03;;;2.60;93.50;;;;;;4963482;28;20037;-78
2022/12/05 06:40:08;;;;;;;60.53;35.03;;;2.70;93.50;;;;;;4964498;28;20027;-78
2022/12/05 06:42:34;;;;;;;62.42;35.28;;;2.70;93.50;;;;;;4967755;28;20022;-79
2022/12/05 06:45:00;;;;;;;54.20;33.25;;;2.70;93.50;;;;;;4963955;28;20085;-77
2022/12/05 06:47:26;;;;;;;58.83;35.38;;;2.70;93.50;;;;;;4967522;28;20043;-80
2022/12/05 06:49:52;;;;;;;59.47;33.85;;;2.70;93.50;;;;;;4971868;28;20035;-77
2022/12/05 06:52:17;;;;;;;58.70;35.90;;;2.70;93.50;;;;;;4966209;28;20058;-75
2022/12/05 06:54:43;;;;;;;58.53;33.25;;;2.70;93.40;;;;;;4972546;28;20256;-75
2022/12/05 06:57:09;;;;;;;60.70;33.88;;;2.70;93.30;;;;;;4966502;28;20041;-77
2022/12/05 06:59:34;;;;;;;59.20;33.92;;;2.70;93.40;;;;;;4969795;28;20038;-78
2022/12/05 07:02:00;;;;;;;57.15;34.13;;;2.70;93.20;;;;;;4965526;28;20043;-77
2022/12/05 07:04:26;;;;;;;58.47;33.35;;;2.70;93.30;;;;;;4974519;28;20026;-77
2022/12/05 07:06:53;;;;;;;56.50;32.03;;;2.60;93.20;;;;;;4964815;28;20130;-80
2022/12/05 07:09:44;;;;;;;56.90;34.30;;;2.60;93.30;;;;;;4979183;28;20053;-77
2022/12/05 07:12:08;;;;;;;58.58;34.42;;;2.70;93.20;;;;;;4967075;28;20058;-77
2022/12/05 07:14:34;;;;;;;63.10;36.55;;;2.70;93.30;;;;;;4969758;28;20347;-76
2022/12/05 07:16:59;;;;;;;62.65;37.20;;;2.60;93.30;;;;;;4964207;28;20031;-80
2022/12/05 07:19:25;;;;;;;63.67;37.25;;;2.60;93.30;;;;;;4974476;28;20434;-78
2022/12/05 07:21:51;;;;;;;68.03;37.38;;;2.60;93.40;;;;;;4965319;28;20089;-78
2022/12/05 07:24:17;;;;;;;57.40;34.97;;;2.70;93.40;;;;;;4968074;28;20307;-80
2022/12/05 07:26:43;;;;;;;58.30;34.80;;;2.70;93.40;;;;;;4972864;28;20027;-79
2022/12/05 07:29:09;;;;;;;60.60;33.15;;;2.70;93.40;;;;;;4970689;28;20042;-77
2022/12/05 07:31:35;;;;;;;56.88;33.65;;;2.70;93.40;;;;;;4967419;28;20047;-76
2022/12/05 07:34:01;;;;;;;60.72;36.10;;;2.70;93.50;;;;;;4971754;28;20038;-78
2022/12/05 07:36:27;;;;;;;61.40;36.88;;;2.70;93.50;;;;;;4968719;28;20037;-82
2022/12/05 07:38:55;;;;;;;63.28;37.22;;;2.80;93.50;;;;;;4967862;28;20035;-76
2022/12/05 07:41:26;;;;;;;58.95;35.55;;;2.80;93.60;;;;;;4968140;28;20042;-80
2022/12/05 07:43:53;;;;;;;57.63;33.88;;;2.80;93.60;;;;;;4963984;28;20027;-79
2022/12/05 07:46:19;;;;;;;55.53;32.92;;;2.80;93.60;;;;;;4968663;28;20035;-75
2022/12/05 07:48:46;;;;;;;58.75;33.33;;;2.80;93.60;;;;;;4972146;28;20037;-77
2022/12/05 07:51:12;;;;;;;54.25;31.67;;;2.90;93.60;;;;;;4962438;28;20039;-80
2022/12/05 07:53:40;;;;;;;60.15;36.63;;;2.90;93.60;;;;;;4973945;28;20046;-77
2022/12/05 07:56:08;;;;;;;56.10;34.35;;;2.90;93.70;;;;;;4961433;28;20380;-79
2022/12/05 07:58:35;;;;;;;62.40;37.50;;;2.90;93.70;;;;;;4964341;28;20049;-80
2022/12/05 08:01:12;;;;;;;54.33;34.03;;;3.00;93.70;;;;;;4964942;28;20038;-78
2022/12/05 08:03:38;;;;;;;57.70;33.72;;;3.00;93.70;;;;;;4963871;28;20043;-77
2022/12/05 08:06:07;;;;;;;52.55;31.85;;;3.00;93.80;;;;;;4961683;28;20049;-77
2022/12/05 08:08:32;;;;;;;57.33;34.75;;;3.00;93.70;;;;;;4962907;28;20499;-81
2022/12/05 08:11:10;;;;;;;61.58;33.10;;;3.10;93.70;;;;;;4962388;28;20042;-80
2022/12/05 08:13:36;;;;;;;58.45;34.67;;;3.10;93.70;;;;;;4967907;28;20244;-76
2022/12/05 08:16:07;;;;;;;52.80;33.72;;;3.10;93.70;;;;;;4975261;28;20027;-77
2022/12/05 08:18:32;;;;;;;60.00;35.63;;;3.10;93.70;;;;;;4971721;28;20030;-80
2022/12/05 08:21:13;;;;;;;57.75;34.58;;;3.10;93.70;;;;;;4972725;28;20077;-80
2022/12/05 08:23:40;;;;;;;61.08;34.80;;;3.10;93.70;;;;;;4960518;28;20108;-76
2022/12/05 08:26:12;;;;;;;57.95;35.53;;;3.20;93.80;;;;;;4971012;28;20066;-78
2022/12/05 08:28:38;;;;;;;58.10;35.85;;;3.20;93.80;;;;;;4965256;28;20046;-81
2022/12/05 08:31:06;;;;;;;59.88;35.30;;;3.10;93.70;;;;;;4970836;28;20043;-81
2022/12/05 08:33:32;;;;;;;63.63;37.08;;;3.20;93.80;;;;;;4968687;28;20505;-76
2022/12/05 08:36:03;;;;;;;58.17;35.10;;;3.20;93.70;;;;;;4961875;28;20031;-77
2022/12/05 08:38:29;;;;;;;59.63;35.63;;;3.20;93.70;;;;;;4966120;28;20114;-75
2022/12/05 08:40:55;;;;;;;56.60;35.08;;;3.30;93.60;;;;;;4961466;28;20387;-76
2022/12/05 08:43:21;;;;;;;57.90;36.63;;;3.30;93.60;;;;;;4961926;28;20034;-76
2022/12/05 08:45:53;;;;;;;58.08;35.85;;;3.30;93.60;;;;;;4965170;28;20255;-75
2022/12/05 08:48:18;;;;;;;59.45;34.95;;;3.30;93.60;;;;;;4959069;28;20034;-75
2022/12/05 08:50:44;;;;;;;63.50;35.58;;;3.30;93.60;;;;;;4951758;28;20476;-78
2022/12/05 08:53:10;;;;;;;60.35;35.22;;;3.30;93.70;;;;;;4963734;28;20342;-75
2022/12/05 08:55:36;;;;;;;65.20;36.42;;;3.40;93.70;;;;;;4958558;28;20027;-75
2022/12/05 08:58:02;;;;;;;60.35;36.70;;;3.40;93.70;;;;;;4958025;28;20121;-77
2022/12/05 09:00:28;;;;;;;60.45;37.38;;;3.40;93.70;;;;;;4962977;28;20197;-76
2022/12/05 09:02:53;;;;;;;60.33;36.80;;;3.40;93.70;;;;;;4959235;28;20062;-75
2022/12/05 09:05:19;;;;;;;65.28;38.88;;;3.50;93.70;;;;;;4956026;28;20133;-75
2022/12/05 09:07:45;;;;;;;64.63;39.25;;;3.50;93.80;;;;;;4962009;28;20432;-75
2022/12/05 09:10:10;;;;;;;61.60;35.13;;;3.50;93.80;;;;;;4961364;28;20121;-75
2022/12/05 09:12:36;;;;;;;60.03;36.30;;;3.60;93.80;;;;;;4971323;28;20043;-75
2022/12/05 09:15:07;;;;;;;61.88;36.33;;;3.60;93.80;;;;;;4959568;28;20030;-75
2022/12/05 09:17:33;;;;;;;69.55;40.08;;;3.60;93.80;;;;;;4962074;28;20030;-75
2022/12/05 09:19:59;;;;;;;63.65;39.03;;;3.60;93.80;;;;;;4964337;28;20415;-75
2022/12/05 09:22:24;;;;;;;70.28;41.22;;;3.60;93.90;;;;;;4964200;28;20046;-76
2022/12/05 09:24:50;;;;;;;74.25;42.85;;;3.70;93.90;;;;;;4956489;28;20038;-75
2022/12/05 09:27:16;;;;;;;67.47;39.97;;;3.70;93.90;;;;;;4955220;28;20037;-76
2022/12/05 09:29:42;;;;;;;70.97;40.65;;;3.80;93.90;;;;;;4958077;28;20070;-76
2022/12/05 09:32:08;;;;;;;63.97;39.45;;;3.80;93.90;;;;;;4954498;28;20035;-75
2022/12/05 09:34:36;;;;;;;72.88;40.20;;;3.80;93.90;;;;;;4955440;28;20294;-75
2022/12/05 09:37:03;;;;;;;59.28;36.60;;;3.90;93.90;;;;;;4956585;28;20488;-76
2022/12/05 09:39:29;;;;;;;62.67;39.42;;;3.90;93.80;;;;;;4959432;28;20050;-76
2022/12/05 09:42:17;;;;;;;63.53;37.72;;;3.90;93.80;;;;;;4960175;28;20047;-75
2022/12/05 09:44:51;;;;;;;69.82;41.15;;;3.90;93.80;;;;;;4969262;28;20767;-75
2022/12/05 09:47:37;;;;;;;63.85;39.35;;;4.00;93.80;;;;;;4962216;28;20572;-76
2022/12/05 09:50:20;;;;;;;64.63;38.75;;;4.00;93.80;;;;;;4961949;28;20034;-75
2022/12/05 09:53:19;;;;;;;66.68;39.78;;;4.00;93.70;;;;;;4962465;28;20097;-75
2022/12/05 09:55:51;;;;;;;60.25;37.20;;;4.00;93.70;;;;;;4959475;28;20053;-77
2022/12/05 09:58:21;;;;;;;61.03;37.42;;;4.00;93.70;;;;;;4959836;28;20538;-76
2022/12/05 10:00:52;;;;;;;63.78;38.75;;;4.00;93.70;;;;;;4961915;28;20042;-78
2022/12/05 10:03:25;;;;;;;62.53;39.15;;;4.00;93.60;;;;;;4962575;28;20126;-75
2022/12/05 10:06:15;;;;;;;64.72;38.53;;;4.10;93.60;;;;;;4958296;28;20118;-74
2022/12/05 10:09:32;;;;;;;63.03;37.55;;;4.10;93.60;;;;;;4962144;28;20944;-75
2022/12/05 10:12:24;;;;;;;63.63;36.58;;;4.10;93.50;;;;;;4956803;28;20117;-76
2022/12/05 10:15:15;;;;;;;59.75;36.25;;;4.10;93.40;;;;;;4958778;28;20118;-78
2022/12/05 10:17:46;;;;;;;67.65;39.83;;;4.10;93.40;;;;;;4956725;28;20070;-79
2022/12/05 10:20:24;;;;;;;66.10;37.80;;;4.10;93.50;;;;;;4956377;28;20397;-76
2022/12/05 10:23:03;;;;;;;66.53;38.40;;;4.10;93.50;;;;;;4950293;28;20383;-78
2022/12/05 10:25:31;;;;;;;59.15;36.90;;;4.10;93.40;;;;;;4958567;28;20030;-76
2022/12/05 10:28:00;;;;;;;63.17;40.55;;;4.10;93.40;;;;;;4960146;28;20558;-77
2022/12/05 10:30:35;;;;;;;64.57;38.80;;;4.10;93.40;;;;;;4953825;28;20436;-77
2022/12/05 10:33:14;;;;;;;61.33;38.67;;;4.10;93.30;;;;;;4971268;28;20541;-76
2022/12/05 10:35:41;;;;;;;60.60;36.92;;;4.10;93.40;;;;;;4956773;28;20043;-77
2022/12/05 10:38:10;;;;;;;70.13;41.25;;;4.10;93.40;;;;;;4960647;28;20041;-76
2022/12/05 10:40:42;;;;;;;63.17;39.30;;;4.10;93.40;;;;;;4955853;28;20049;-77
2022/12/05 10:43:12;;;;;;;67.95;40.47;;;4.20;93.50;;;;;;4954101;28;20050;-76
2022/12/05 10:45:46;;;;;;;65.05;40.17;;;4.20;93.50;;;;;;4952986;28;20034;-77
2022/12/05 10:48:14;;;;;;;71.97;43.22;;;4.20;93.50;;;;;;4955196;28;20034;-79
2022/12/05 10:50:42;;;;;;;67.35;42.42;;;4.20;93.50;;;;;;4958217;28;20208;-78
2022/12/05 10:53:14;;;;;;;69.68;42.42;;;4.20;93.60;;;;;;4956117;28;20031;-77
2022/12/05 10:55:42;;;;;;;74.28;44.40;;;4.30;93.60;;;;;;4948193;28;20034;-76
2022/12/05 10:58:15;;;;;;;76.10;43.22;;;4.30;93.50;;;;;;4957310;28;20031;-76
2022/12/05 11:00:47;;;;;;;68.18;41.92;;;4.40;93.50;;;;;;4957899;28;20463;-77
2022/12/05 11:03:33;;;;;;;61.65;39.35;;;4.40;93.60;;;;;;4949017;28;20090;-76
2022/12/05 11:06:01;;;;;;;68.40;43.03;;;4.50;93.50;;;;;;4952531;28;20308;-78
2022/12/05 11:08:30;;;;;;;63.70;41.53;;;4.60;93.50;;;;;;4951747;28;20371;-78
2022/12/05 11:11:16;;;;;;;69.95;44.47;;;4.60;93.40;;;;;;4946863;28;20031;-76
2022/12/05 11:13:56;;;;;;;68.88;44.45;;;4.60;93.30;;;;;;4953370;28;20438;-75
2022/12/05 11:16:31;;;;;;;77.30;47.40;;;4.70;93.30;;;;;;4949186;28;20032;-76
2022/12/05 11:19:36;;;;;;;66.43;42.03;;;4.60;93.20;;;;;;4957297;28;20093;-76
2022/12/05 11:22:04;;;;;;;65.63;42.27;;;4.70;93.20;;;;;;4961809;28;20070;-75
2022/12/05 11:24:34;;;;;;;64.80;42.97;;;4.70;93.10;;;;;;4966542;28;20127;-76
2022/12/05 11:27:25;;;;;;;65.10;41.42;;;4.70;93.00;;;;;;4968509;28;20035;-74
2022/12/05 11:29:56;;;;;;;76.68;47.83;;;4.60;92.90;;;;;;4965076;28;20344;-76
2022/12/05 11:32:27;;;;;;;71.72;44.97;;;4.60;92.90;;;;;;4968258;28;20565;-77
2022/12/05 11:34:57;;;;;;;66.68;43.53;;;4.60;93.00;;;;;;4972343;28;20026;-75
2022/12/05 11:37:31;;;;;;;68.35;42.13;;;4.70;93.10;;;;;;4967024;28;20129;-77
2022/12/05 11:39:57;;;;;;;64.55;39.58;;;4.70;93.10;;;;;;4954650;28;20234;-76
2022/12/05 11:43:00;;;;;;;64.20;38.67;;;4.70;93.10;;;;;;4973985;28;20046;-78
2022/12/05 11:45:44;;;;;;;61.30;38.80;;;4.70;93.10;;;;;;4962963;28;20063;-75
2022/12/05 11:48:15;;;;;;;58.53;38.20;;;4.80;93.00;;;;;;4960168;28;20031;-75
2022/12/05 11:51:05;;;;;;;55.05;36.35;;;4.80;93.00;;;;;;4958665;28;20036;-74
2022/12/05 11:53:54;;;;;;;61.45;36.47;;;4.80;93.00;;;;;;4971965;28;20043;-74
2022/12/05 11:56:34;;;;;;;58.70;36.83;;;4.80;92.90;;;;;;4957914;28;20444;-74
2022/12/05 11:59:30;;;;;;;56.85;37.20;;;4.80;92.90;;;;;;4962840;28;20089;-75
2022/12/05 12:02:27;;;;;;;58.00;36.25;;;4.80;93.00;;;;;;4959700;28;20051;-75
2022/12/05 12:05:16;;;;;;;54.38;35.50;;;4.80;93.00;;;;;;4960680;28;20118;-78
2022/12/05 12:07:56;;;;;;;56.53;34.80;;;4.70;92.90;;;;;;4959475;28;20157;-76
2022/12/05 12:10:30;;;;;;;52.50;34.03;;;4.70;92.90;;;;;;4959460;28;21247;-78
2022/12/05 12:13:27;;;;;;;57.75;35.33;;;4.70;92.90;;;;;;4953108;28;20137;-76
2022/12/05 12:16:07;;;;;;;51.88;35.10;;;4.80;92.90;;;;;;4959191;28;20027;-77
2022/12/05 12:18:42;;;;;;;54.72;35.63;;;4.70;92.90;;;;;;4958133;28;20126;-76
2022/12/05 12:21:30;;;;;;;53.85;33.60;;;4.70;92.90;;;;;;4955292;28;20050;-75
2022/12/05 12:24:14;;;;;;;52.75;33.40;;;4.70;92.90;;;;;;4959664;28;20046;-77
2022/12/05 12:26:48;;;;;;;62.28;37.03;;;4.70;92.90;;;;;;4957831;28;20045;-77
2022/12/05 12:29:54;;;;;;;58.28;36.80;;;4.70;92.90;;;;;;4956673;28;20093;-78
2022/12/05 12:32:37;;;;;;;55.22;35.28;;;4.70;92.90;;;;;;4971585;28;20050;-78
2022/12/05 12:35:33;;;;;;;51.05;35.17;;;4.80;92.90;;;;;;4961302;28;20507;-78
2022/12/05 12:38:26;;;;;;;53.83;35.33;;;4.80;92.80;;;;;;4957702;28;20376;-77
2022/12/05 12:40:56;;;;;;;53.42;33.55;;;4.70;92.80;;;;;;4957765;28;20038;-78
2022/12/05 12:44:15;;;;;;;58.38;35.67;;;4.70;92.80;;;;;;4955899;28;20035;-77
2022/12/05 12:46:56;;;;;;;59.78;36.30;;;4.70;92.80;;;;;;4974199;28;20619;-77
2022/12/05 12:49:33;;;;;;;61.20;36.22;;;4.70;92.80;;;;;;4958913;28;20564;-78
2022/12/05 12:52:10;;;;;;;57.45;35.42;;;4.80;92.80;;;;;;4955795;28;20035;-77
2022/12/05 12:55:00;;;;;;;65.25;38.17;;;4.70;92.70;;;;;;4960664;28;20049;-77
2022/12/05 12:57:54;;;;;;;59.47;39.50;;;4.80;92.80;;;;;;4959501;28;20118;-76
2022/12/05 13:00:37;;;;;;;61.00;38.88;;;4.70;92.90;;;;;;4974670;28;20078;-76
2022/12/05 13:03:05;;;;;;;60.22;38.75;;;4.80;92.90;;;;;;4972947;28;20130;-76
2022/12/05 13:05:36;;;;;;;61.05;38.40;;;4.80;92.90;;;;;;4956916;28;20416;-76
2022/12/05 13:08:05;;;;;;;64.95;40.13;;;4.80;93.00;;;;;;4963927;28;20114;-78
2022/12/05 13:10:38;;;;;;;59.97;38.72;;;4.80;92.90;;;;;;4963427;28;20072;-76